sensor_id;sensor_type;location;lat;lon;timestamp;pressure;altitude;pressure_sealevel;temperature;humidity
76627;BME280;65519;53.230;10.390;2024-01-10T00:01:14;103173.03;;;-6.38;100.00
76627;BME280;65519;53.230;10.390;2024-01-10T00:03:39;103167.75;;;-6.52;100.00
76627;BME280;65519;53.230;10.390;2024-01-10T00:06:05;103168.34;;;-6.35;100.00
76627;BME280;65519;53.230;10.390;2024-01-10T00:08:31;103160.81;;;-6.55;100.00
76627;BME280;65519;53.230;10.390;2024-01-10T00:10:56;103156.63;;;-6.59;100.00
76627;BME280;65519;53.230;10.390;2024-01-10T00:13:22;103153.25;;;-6.61;100.00
76627;BME280;65519;53.230;10.390;2024-01-10T00:15:48;103152.06;;;-6.84;100.00
76627;BME280;65519;53.230;10.390;2024-01-10T00:18:14;103152.69;;;-6.80;100.00
76627;BME280;65519;53.230;10.390;2024-01-10T00:20:39;103154.97;;;-6.88;100.00
76627;BME280;65519;53.230;10.390;2024-01-10T00:23:05;103147.59;;;-6.97;100.00
76627;BME280;65519;53.230;10.390;2024-01-10T00:25:32;103153.75;;;-7.25;100.00
76627;BME280;65519;53.230;10.390;2024-01-10T00:27:57;103140.28;;;-7.22;100.00
76627;BME280;65519;53.230;10.390;2024-01-10T00:30:23;103141.72;;;-7.17;100.00
76627;BME280;65519;53.230;10.390;2024-01-10T00:32:48;103136.88;;;-7.24;100.00
76627;BME280;65519;53.230;10.390;2024-01-10T00:35:14;103142.88;;;-7.07;100.00
76627;BME280;65519;53.230;10.390;2024-01-10T00:37:39;103152.22;;;-6.87;100.00
76627;BME280;65519;53.230;10.390;2024-01-10T00:40:05;103144.09;;;-6.84;100.00
76627;BME280;65519;53.230;10.390;2024-01-10T00:42:31;103144.56;;;-6.91;100.00
76627;BME280;65519;53.230;10.390;2024-01-10T00:44:56;103139.81;;;-7.01;100.00
76627;BME280;65519;53.230;10.390;2024-01-10T00:47:22;103141.16;;;-6.93;100.00
76627;BME280;65519;53.230;10.390;2024-01-10T00:49:47;103137.28;;;-6.88;100.00
76627;BME280;65519;53.230;10.390;2024-01-10T00:52:13;103133.97;;;-7.20;100.00
76627;BME280;65519;53.230;10.390;2024-01-10T00:54:38;103139.53;;;-7.10;100.00
76627;BME280;65519;53.230;10.390;2024-01-10T00:57:04;103145.41;;;-6.91;100.00
76627;BME280;65519;53.230;10.390;2024-01-10T00:59:29;103140.97;;;-6.90;100.00
76627;BME280;65519;53.230;10.390;2024-01-10T01:01:54;103140.00;;;-6.89;100.00
76627;BME280;65519;53.230;10.390;2024-01-10T01:04:20;103142.28;;;-6.83;100.00
76627;BME280;65519;53.230;10.390;2024-01-10T01:06:46;103127.25;;;-6.97;100.00
76627;BME280;65519;53.230;10.390;2024-01-10T01:09:11;103133.66;;;-6.87;100.00
76627;BME280;65519;53.230;10.390;2024-01-10T01:11:40;103144.28;;;-6.87;100.00
76627;BME280;65519;53.230;10.390;2024-01-10T01:14:06;103143.25;;;-6.84;100.00
76627;BME280;65519;53.230;10.390;2024-01-10T01:16:31;103141.34;;;-6.96;100.00
76627;BME280;65519;53.230;10.390;2024-01-10T01:18:57;103131.69;;;-6.97;100.00
76627;BME280;65519;53.230;10.390;2024-01-10T01:21:22;103142.22;;;-6.82;100.00
76627;BME280;65519;53.230;10.390;2024-01-10T01:23:48;103149.75;;;-6.76;100.00
76627;BME280;65519;53.230;10.390;2024-01-10T01:26:13;103150.34;;;-6.85;100.00
76627;BME280;65519;53.230;10.390;2024-01-10T01:28:40;103143.31;;;-7.00;100.00
76627;BME280;65519;53.230;10.390;2024-01-10T01:31:05;103148.84;;;-7.03;100.00
76627;BME280;65519;53.230;10.390;2024-01-10T01:33:31;103156.88;;;-7.05;100.00
76627;BME280;65519;53.230;10.390;2024-01-10T01:35:56;103148.63;;;-7.00;100.00
76627;BME280;65519;53.230;10.390;2024-01-10T01:38:22;103147.13;;;-6.90;100.00
76627;BME280;65519;53.230;10.390;2024-01-10T01:40:47;103146.34;;;-6.92;100.00
76627;BME280;65519;53.230;10.390;2024-01-10T01:43:23;103147.69;;;-6.85;100.00
76627;BME280;65519;53.230;10.390;2024-01-10T01:45:51;103155.84;;;-6.88;100.00
76627;BME280;65519;53.230;10.390;2024-01-10T01:48:18;103160.00;;;-6.84;100.00
76627;BME280;65519;53.230;10.390;2024-01-10T01:50:45;103154.88;;;-6.87;100.00
76627;BME280;65519;53.230;10.390;2024-01-10T01:53:13;103151.66;;;-6.92;100.00
76627;BME280;65519;53.230;10.390;2024-01-10T01:55:39;103149.03;;;-7.06;100.00
76627;BME280;65519;53.230;10.390;2024-01-10T01:58:05;103144.75;;;-7.09;100.00
76627;BME280;65519;53.230;10.390;2024-01-10T02:00:32;103143.72;;;-7.06;100.00
76627;BME280;65519;53.230;10.390;2024-01-10T02:02:58;103138.97;;;-7.01;100.00
76627;BME280;65519;53.230;10.390;2024-01-10T02:05:25;103131.41;;;-6.93;100.00
76627;BME280;65519;53.230;10.390;2024-01-10T02:07:51;103133.00;;;-6.90;100.00
76627;BME280;65519;53.230;10.390;2024-01-10T02:10:17;103135.94;;;-6.81;100.00
76627;BME280;65519;53.230;10.390;2024-01-10T02:12:43;103127.97;;;-6.81;100.00
76627;BME280;65519;53.230;10.390;2024-01-10T02:15:09;103118.03;;;-6.77;100.00
76627;BME280;65519;53.230;10.390;2024-01-10T02:17:34;103134.25;;;-6.82;100.00
76627;BME280;65519;53.230;10.390;2024-01-10T02:20:13;103130.53;;;-6.65;100.00
76627;BME280;65519;53.230;10.390;2024-01-10T02:22:39;103126.16;;;-6.80;100.00
76627;BME280;65519;53.230;10.390;2024-01-10T02:25:07;103121.94;;;-6.83;100.00
76627;BME280;65519;53.230;10.390;2024-01-10T02:27:34;103120.59;;;-6.76;100.00
76627;BME280;65519;53.230;10.390;2024-01-10T02:30:03;103117.94;;;-6.76;100.00
76627;BME280;65519;53.230;10.390;2024-01-10T02:32:28;103112.91;;;-6.66;100.00
76627;BME280;65519;53.230;10.390;2024-01-10T02:34:54;103112.81;;;-6.65;100.00
76627;BME280;65519;53.230;10.390;2024-01-10T02:37:20;103104.69;;;-6.90;100.00
76627;BME280;65519;53.230;10.390;2024-01-10T02:39:45;103116.38;;;-6.92;100.00
76627;BME280;65519;53.230;10.390;2024-01-10T02:42:11;103111.50;;;-6.86;100.00
76627;BME280;65519;53.230;10.390;2024-01-10T02:44:36;103117.97;;;-7.04;100.00
76627;BME280;65519;53.230;10.390;2024-01-10T02:47:02;103118.72;;;-6.88;100.00
76627;BME280;65519;53.230;10.390;2024-01-10T02:49:27;103123.25;;;-6.90;100.00
76627;BME280;65519;53.230;10.390;2024-01-10T02:51:52;103115.97;;;-6.86;100.00
76627;BME280;65519;53.230;10.390;2024-01-10T02:54:18;103119.38;;;-6.84;100.00
76627;BME280;65519;53.230;10.390;2024-01-10T02:56:43;103118.13;;;-6.79;100.00
76627;BME280;65519;53.230;10.390;2024-01-10T02:59:09;103124.38;;;-6.80;100.00
76627;BME280;65519;53.230;10.390;2024-01-10T03:01:34;103122.75;;;-6.68;100.00
76627;BME280;65519;53.230;10.390;2024-01-10T03:04:00;103111.97;;;-6.79;100.00
76627;BME280;65519;53.230;10.390;2024-01-10T03:06:25;103116.81;;;-6.86;100.00
76627;BME280;65519;53.230;10.390;2024-01-10T03:08:51;103102.72;;;-6.86;100.00
76627;BME280;65519;53.230;10.390;2024-01-10T03:11:16;103106.41;;;-6.89;100.00
76627;BME280;65519;53.230;10.390;2024-01-10T03:13:46;103106.19;;;-6.72;100.00
76627;BME280;65519;53.230;10.390;2024-01-10T03:16:12;103101.75;;;-6.71;100.00
76627;BME280;65519;53.230;10.390;2024-01-10T03:18:38;103102.72;;;-6.86;100.00
76627;BME280;65519;53.230;10.390;2024-01-10T03:21:04;103094.09;;;-6.90;100.00
76627;BME280;65519;53.230;10.390;2024-01-10T03:23:29;103089.72;;;-6.77;100.00
76627;BME280;65519;53.230;10.390;2024-01-10T03:25:56;103096.72;;;-6.76;100.00
76627;BME280;65519;53.230;10.390;2024-01-10T03:28:22;103098.25;;;-6.72;100.00
76627;BME280;65519;53.230;10.390;2024-01-10T03:30:47;103094.44;;;-6.68;100.00
76627;BME280;65519;53.230;10.390;2024-01-10T03:33:13;103094.78;;;-6.59;100.00
76627;BME280;65519;53.230;10.390;2024-01-10T03:35:38;103088.75;;;-6.61;100.00
76627;BME280;65519;53.230;10.390;2024-01-10T03:38:04;103087.47;;;-6.56;100.00
76627;BME280;65519;53.230;10.390;2024-01-10T03:40:29;103080.19;;;-6.52;100.00
76627;BME280;65519;53.230;10.390;2024-01-10T03:42:55;103080.78;;;-6.61;100.00
76627;BME280;65519;53.230;10.390;2024-01-10T03:45:20;103089.97;;;-6.67;100.00
76627;BME280;65519;53.230;10.390;2024-01-10T03:47:49;103089.97;;;-6.67;100.00
76627;BME280;65519;53.230;10.390;2024-01-10T03:50:19;103098.28;;;-6.59;100.00
76627;BME280;65519;53.230;10.390;2024-01-10T03:52:45;103097.06;;;-6.53;100.00
76627;BME280;65519;53.230;10.390;2024-01-10T03:55:11;103086.63;;;-6.56;100.00
76627;BME280;65519;53.230;10.390;2024-01-10T03:57:38;103096.38;;;-6.57;100.00
76627;BME280;65519;53.230;10.390;2024-01-10T04:00:07;103106.56;;;-6.64;100.00
76627;BME280;65519;53.230;10.390;2024-01-10T04:02:33;103100.72;;;-6.83;100.00
76627;BME280;65519;53.230;10.390;2024-01-10T04:04:59;103095.41;;;-6.83;100.00
76627;BME280;65519;53.230;10.390;2024-01-10T04:07:27;103102.13;;;-6.77;100.00
76627;BME280;65519;53.230;10.390;2024-01-10T04:09:52;103099.00;;;-6.84;100.00
76627;BME280;65519;53.230;10.390;2024-01-10T04:12:18;103105.25;;;-6.71;100.00
76627;BME280;65519;53.230;10.390;2024-01-10T04:14:43;103108.09;;;-6.74;100.00
76627;BME280;65519;53.230;10.390;2024-01-10T04:17:09;103095.97;;;-6.92;100.00
76627;BME280;65519;53.230;10.390;2024-01-10T04:19:34;103095.81;;;-7.03;100.00
76627;BME280;65519;53.230;10.390;2024-01-10T04:22:00;103096.38;;;-6.98;100.00
76627;BME280;65519;53.230;10.390;2024-01-10T04:24:25;103093.72;;;-6.98;100.00
76627;BME280;65519;53.230;10.390;2024-01-10T04:26:51;103091.53;;;-6.91;100.00
76627;BME280;65519;53.230;10.390;2024-01-10T04:29:16;103092.78;;;-6.83;100.00
76627;BME280;65519;53.230;10.390;2024-01-10T04:31:42;103089.63;;;-6.89;100.00
76627;BME280;65519;53.230;10.390;2024-01-10T04:34:08;103086.72;;;-7.13;100.00
76627;BME280;65519;53.230;10.390;2024-01-10T04:36:33;103098.47;;;-7.03;100.00
76627;BME280;65519;53.230;10.390;2024-01-10T04:38:59;103099.59;;;-7.07;100.00
76627;BME280;65519;53.230;10.390;2024-01-10T04:41:25;103099.59;;;-7.21;100.00
76627;BME280;65519;53.230;10.390;2024-01-10T04:43:50;103092.50;;;-7.07;100.00
76627;BME280;65519;53.230;10.390;2024-01-10T04:46:16;103090.41;;;-7.02;100.00
76627;BME280;65519;53.230;10.390;2024-01-10T04:48:41;103088.59;;;-7.01;100.00
76627;BME280;65519;53.230;10.390;2024-01-10T04:51:07;103094.75;;;-7.01;100.00
76627;BME280;65519;53.230;10.390;2024-01-10T04:53:32;103090.78;;;-6.93;100.00
76627;BME280;65519;53.230;10.390;2024-01-10T04:55:58;103092.38;;;-6.91;100.00
76627;BME280;65519;53.230;10.390;2024-01-10T04:58:24;103084.63;;;-6.94;100.00
76627;BME280;65519;53.230;10.390;2024-01-10T05:00:49;103083.56;;;-6.91;100.00
76627;BME280;65519;53.230;10.390;2024-01-10T05:03:14;103068.81;;;-6.95;100.00
76627;BME280;65519;53.230;10.390;2024-01-10T05:05:41;103065.22;;;-6.94;100.00
76627;BME280;65519;53.230;10.390;2024-01-10T05:08:06;103071.34;;;-6.80;100.00
76627;BME280;65519;53.230;10.390;2024-01-10T05:10:32;103071.25;;;-6.78;100.00
76627;BME280;65519;53.230;10.390;2024-01-10T05:12:57;103060.03;;;-6.96;100.00
76627;BME280;65519;53.230;10.390;2024-01-10T05:15:23;103066.63;;;-6.89;100.00
76627;BME280;65519;53.230;10.390;2024-01-10T05:17:48;103067.56;;;-6.90;100.00
76627;BME280;65519;53.230;10.390;2024-01-10T05:20:14;103059.25;;;-6.84;100.00
76627;BME280;65519;53.230;10.390;2024-01-10T05:22:40;103061.41;;;-6.76;100.00
76627;BME280;65519;53.230;10.390;2024-01-10T05:25:06;103055.06;;;-6.74;100.00
76627;BME280;65519;53.230;10.390;2024-01-10T05:27:32;103066.63;;;-6.89;100.00
76627;BME280;65519;53.230;10.390;2024-01-10T05:29:57;103050.81;;;-6.90;100.00
76627;BME280;65519;53.230;10.390;2024-01-10T05:32:25;103073.81;;;-6.77;100.00
76627;BME280;65519;53.230;10.390;2024-01-10T05:34:51;103083.63;;;-6.65;100.00
76627;BME280;65519;53.230;10.390;2024-01-10T05:37:17;103080.03;;;-6.64;100.00
76627;BME280;65519;53.230;10.390;2024-01-10T05:39:42;103076.63;;;-6.66;100.00
76627;BME280;65519;53.230;10.390;2024-01-10T05:42:08;103074.56;;;-6.89;100.00
76627;BME280;65519;53.230;10.390;2024-01-10T05:44:33;103081.25;;;-6.69;100.00
76627;BME280;65519;53.230;10.390;2024-01-10T05:46:58;103073.25;;;-6.82;100.00
76627;BME280;65519;53.230;10.390;2024-01-10T05:49:25;103068.16;;;-6.85;100.00
76627;BME280;65519;53.230;10.390;2024-01-10T05:51:50;103070.00;;;-6.73;100.00
76627;BME280;65519;53.230;10.390;2024-01-10T05:54:16;103080.41;;;-6.70;100.00
76627;BME280;65519;53.230;10.390;2024-01-10T05:56:43;103072.25;;;-6.67;100.00
76627;BME280;65519;53.230;10.390;2024-01-10T05:59:09;103072.34;;;-6.68;100.00
76627;BME280;65519;53.230;10.390;2024-01-10T06:01:37;103076.44;;;-6.63;100.00
76627;BME280;65519;53.230;10.390;2024-01-10T06:04:04;103079.47;;;-6.69;100.00
76627;BME280;65519;53.230;10.390;2024-01-10T06:06:29;103078.50;;;-6.68;100.00
76627;BME280;65519;53.230;10.390;2024-01-10T06:08:55;103076.53;;;-6.64;100.00
76627;BME280;65519;53.230;10.390;2024-01-10T06:11:20;103082.97;;;-6.68;100.00
76627;BME280;65519;53.230;10.390;2024-01-10T06:13:46;103083.75;;;-6.80;100.00
76627;BME280;65519;53.230;10.390;2024-01-10T06:16:11;103086.53;;;-6.82;100.00
76627;BME280;65519;53.230;10.390;2024-01-10T06:18:39;103089.91;;;-6.80;100.00
76627;BME280;65519;53.230;10.390;2024-01-10T06:21:04;103086.03;;;-6.88;100.00
76627;BME280;65519;53.230;10.390;2024-01-10T06:23:30;103088.59;;;-6.87;100.00
76627;BME280;65519;53.230;10.390;2024-01-10T06:25:55;103085.19;;;-6.89;100.00
76627;BME280;65519;53.230;10.390;2024-01-10T06:28:21;103085.50;;;-6.93;100.00
76627;BME280;65519;53.230;10.390;2024-01-10T06:30:48;103089.00;;;-6.93;100.00
76627;BME280;65519;53.230;10.390;2024-01-10T06:33:14;103080.53;;;-6.85;100.00
76627;BME280;65519;53.230;10.390;2024-01-10T06:35:40;103080.53;;;-6.71;100.00
76627;BME280;65519;53.230;10.390;2024-01-10T06:38:09;103079.50;;;-6.83;100.00
76627;BME280;65519;53.230;10.390;2024-01-10T06:40:34;103077.41;;;-6.92;100.00
76627;BME280;65519;53.230;10.390;2024-01-10T06:43:00;103073.84;;;-7.05;100.00
76627;BME280;65519;53.230;10.390;2024-01-10T06:45:26;103073.47;;;-6.99;100.00
76627;BME280;65519;53.230;10.390;2024-01-10T06:47:51;103073.63;;;-7.02;100.00
76627;BME280;65519;53.230;10.390;2024-01-10T06:50:17;103079.16;;;-7.05;100.00
76627;BME280;65519;53.230;10.390;2024-01-10T06:52:44;103081.31;;;-6.97;100.00
76627;BME280;65519;53.230;10.390;2024-01-10T06:55:10;103078.84;;;-7.01;100.00
76627;BME280;65519;53.230;10.390;2024-01-10T06:57:35;103089.00;;;-7.07;100.00
76627;BME280;65519;53.230;10.390;2024-01-10T07:00:01;103081.50;;;-7.01;100.00
76627;BME280;65519;53.230;10.390;2024-01-10T07:02:32;103076.28;;;-7.02;100.00
76627;BME280;65519;53.230;10.390;2024-01-10T07:04:58;103074.72;;;-7.05;100.00
76627;BME280;65519;53.230;10.390;2024-01-10T07:07:23;103073.00;;;-7.06;100.00
76627;BME280;65519;53.230;10.390;2024-01-10T07:09:48;103082.75;;;-7.06;100.00
76627;BME280;65519;53.230;10.390;2024-01-10T07:12:14;103087.88;;;-7.03;100.00
76627;BME280;65519;53.230;10.390;2024-01-10T07:14:39;103092.03;;;-6.99;100.00
76627;BME280;65519;53.230;10.390;2024-01-10T07:17:05;103092.22;;;-7.16;100.00
76627;BME280;65519;53.230;10.390;2024-01-10T07:19:30;103087.47;;;-7.11;100.00
76627;BME280;65519;53.230;10.390;2024-01-10T07:21:56;103083.69;;;-7.07;100.00
76627;BME280;65519;53.230;10.390;2024-01-10T07:24:21;103090.13;;;-7.11;100.00
76627;BME280;65519;53.230;10.390;2024-01-10T07:26:47;103089.50;;;-7.15;100.00
76627;BME280;65519;53.230;10.390;2024-01-10T07:29:13;103091.84;;;-7.10;100.00
76627;BME280;65519;53.230;10.390;2024-01-10T07:31:38;103090.88;;;-7.09;100.00
76627;BME280;65519;53.230;10.390;2024-01-10T07:34:04;103088.91;;;-7.20;100.00
76627;BME280;65519;53.230;10.390;2024-01-10T07:36:33;103089.38;;;-7.13;100.00
76627;BME280;65519;53.230;10.390;2024-01-10T07:39:00;103069.41;;;-7.19;100.00
76627;BME280;65519;53.230;10.390;2024-01-10T07:41:25;103073.84;;;-7.19;100.00
76627;BME280;65519;53.230;10.390;2024-01-10T07:43:51;103081.13;;;-7.09;100.00
76627;BME280;65519;53.230;10.390;2024-01-10T07:46:16;103085.88;;;-7.00;100.00
76627;BME280;65519;53.230;10.390;2024-01-10T07:48:42;103088.41;;;-7.12;100.00
76627;BME280;65519;53.230;10.390;2024-01-10T07:51:07;103078.31;;;-7.20;100.00
76627;BME280;65519;53.230;10.390;2024-01-10T07:53:33;103090.69;;;-7.20;100.00
76627;BME280;65519;53.230;10.390;2024-01-10T07:55:59;103083.59;;;-7.20;100.00
76627;BME280;65519;53.230;10.390;2024-01-10T07:58:24;103092.50;;;-7.35;100.00
76627;BME280;65519;53.230;10.390;2024-01-10T08:00:50;103096.19;;;-7.23;100.00
76627;BME280;65519;53.230;10.390;2024-01-10T08:03:16;103091.00;;;-7.39;100.00
76627;BME280;65519;53.230;10.390;2024-01-10T08:05:42;103091.16;;;-7.42;100.00
76627;BME280;65519;53.230;10.390;2024-01-10T08:08:07;103085.78;;;-7.12;100.00
76627;BME280;65519;53.230;10.390;2024-01-10T08:10:33;103079.81;;;-7.30;100.00
76627;BME280;65519;53.230;10.390;2024-01-10T08:12:58;103087.47;;;-7.11;100.00
76627;BME280;65519;53.230;10.390;2024-01-10T08:15:24;103088.91;;;-7.20;100.00
76627;BME280;65519;53.230;10.390;2024-01-10T08:17:50;103089.03;;;-7.35;100.00
76627;BME280;65519;53.230;10.390;2024-01-10T08:20:16;103092.97;;;-7.28;100.00
76627;BME280;65519;53.230;10.390;2024-01-10T08:22:46;103094.19;;;-7.34;100.00
76627;BME280;65519;53.230;10.390;2024-01-10T08:25:12;103090.69;;;-7.34;100.00
76627;BME280;65519;53.230;10.390;2024-01-10T08:27:40;103084.44;;;-7.33;100.00
76627;BME280;65519;53.230;10.390;2024-01-10T08:30:06;103096.94;;;-7.21;100.00
76627;BME280;65519;53.230;10.390;2024-01-10T08:32:35;103096.00;;;-7.20;100.00
76627;BME280;65519;53.230;10.390;2024-01-10T08:35:05;103100.47;;;-7.07;100.00
76627;BME280;65519;53.230;10.390;2024-01-10T08:37:30;103095.81;;;-7.03;100.00
76627;BME280;65519;53.230;10.390;2024-01-10T08:39:57;103095.25;;;-7.08;100.00
76627;BME280;65519;53.230;10.390;2024-01-10T08:42:22;103104.91;;;-6.93;100.00
76627;BME280;65519;53.230;10.390;2024-01-10T08:44:48;103107.91;;;-6.99;100.00
76627;BME280;65519;53.230;10.390;2024-01-10T08:47:15;103114.94;;;-6.84;100.00
76627;BME280;65519;53.230;10.390;2024-01-10T08:49:40;103113.41;;;-6.88;100.00
76627;BME280;65519;53.230;10.390;2024-01-10T08:52:05;103122.47;;;-6.78;100.00
76627;BME280;65519;53.230;10.390;2024-01-10T08:54:31;103119.75;;;-6.90;100.00
76627;BME280;65519;53.230;10.390;2024-01-10T08:56:56;103123.06;;;-6.73;100.00
76627;BME280;65519;53.230;10.390;2024-01-10T08:59:23;103130.34;;;-6.62;100.00
76627;BME280;65519;53.230;10.390;2024-01-10T09:01:49;103122.66;;;-6.67;100.00
76627;BME280;65519;53.230;10.390;2024-01-10T09:04:14;103127.94;;;-6.52;100.00
76627;BME280;65519;53.230;10.390;2024-01-10T09:06:40;103120.84;;;-6.52;100.00
76627;BME280;65519;53.230;10.390;2024-01-10T09:09:05;103125.28;;;-6.52;100.00
76627;BME280;65519;53.230;10.390;2024-01-10T09:11:31;103114.69;;;-6.52;100.00
76627;BME280;65519;53.230;10.390;2024-01-10T09:13:56;103117.00;;;-6.48;100.00
76627;BME280;65519;53.230;10.390;2024-01-10T09:16:22;103114.69;;;-6.52;100.00
76627;BME280;65519;53.230;10.390;2024-01-10T09:18:47;103111.06;;;-6.51;100.00
76627;BME280;65519;53.230;10.390;2024-01-10T09:21:18;103110.03;;;-6.49;100.00
76627;BME280;65519;53.230;10.390;2024-01-10T09:23:44;103103.03;;;-6.37;100.00
76627;BME280;65519;53.230;10.390;2024-01-10T09:26:09;103109.72;;;-6.44;100.00
76627;BME280;65519;53.230;10.390;2024-01-10T09:28:35;103113.66;;;-6.37;100.00
76627;BME280;65519;53.230;10.390;2024-01-10T09:31:00;103100.97;;;-6.32;100.00
76627;BME280;65519;53.230;10.390;2024-01-10T09:33:25;103098.03;;;-6.28;100.00
76627;BME280;65519;53.230;10.390;2024-01-10T09:35:51;103105.28;;;-6.04;100.00
76627;BME280;65519;53.230;10.390;2024-01-10T09:38:16;103106.69;;;-5.86;100.00
76627;BME280;65519;53.230;10.390;2024-01-10T09:40:42;103101.06;;;-5.81;100.00
76627;BME280;65519;53.230;10.390;2024-01-10T09:43:08;103108.22;;;-5.69;100.00
76627;BME280;65519;53.230;10.390;2024-01-10T09:45:42;103099.19;;;-5.54;100.00
76627;BME280;65519;53.230;10.390;2024-01-10T09:48:13;103094.94;;;-5.44;100.00
76627;BME280;65519;53.230;10.390;2024-01-10T09:50:39;103079.00;;;-5.44;100.00
76627;BME280;65519;53.230;10.390;2024-01-10T09:53:06;103081.75;;;-5.45;100.00
76627;BME280;65519;53.230;10.390;2024-01-10T09:55:36;103078.88;;;-5.30;100.00
76627;BME280;65519;53.230;10.390;2024-01-10T09:58:04;103075.41;;;-5.43;100.00
76627;BME280;65519;53.230;10.390;2024-01-10T10:00:30;103078.00;;;-5.18;100.00
76627;BME280;65519;53.230;10.390;2024-01-10T10:02:57;103079.28;;;-4.98;100.00
76627;BME280;65519;53.230;10.390;2024-01-10T10:05:24;103082.38;;;-5.04;100.00
76627;BME280;65519;53.230;10.390;2024-01-10T10:07:51;103080.75;;;-4.94;100.00
76627;BME280;65519;53.230;10.390;2024-01-10T10:10:19;103067.81;;;-4.74;100.00
76627;BME280;65519;53.230;10.390;2024-01-10T10:12:45;103069.47;;;-4.61;100.00
76627;BME280;65519;53.230;10.390;2024-01-10T10:15:12;103068.41;;;-4.58;100.00
76627;BME280;65519;53.230;10.390;2024-01-10T10:17:39;103060.94;;;-4.53;100.00
76627;BME280;65519;53.230;10.390;2024-01-10T10:20:12;103066.44;;;-4.44;100.00
76627;BME280;65519;53.230;10.390;2024-01-10T10:22:39;103060.75;;;-4.15;100.00
76627;BME280;65519;53.230;10.390;2024-01-10T10:25:05;103052.22;;;-3.96;100.00
76627;BME280;65519;53.230;10.390;2024-01-10T10:27:30;103051.09;;;-4.05;100.00
76627;BME280;65519;53.230;10.390;2024-01-10T10:29:56;103048.84;;;-3.87;100.00
76627;BME280;65519;53.230;10.390;2024-01-10T10:32:21;103051.72;;;-3.44;100.00
76627;BME280;65519;53.230;10.390;2024-01-10T10:34:47;103039.63;;;-3.26;100.00
76627;BME280;65519;53.230;10.390;2024-01-10T10:37:12;103043.72;;;-3.33;100.00
76627;BME280;65519;53.230;10.390;2024-01-10T10:39:38;103039.59;;;-2.92;100.00
76627;BME280;65519;53.230;10.390;2024-01-10T10:42:04;103042.97;;;-2.90;100.00
76627;BME280;65519;53.230;10.390;2024-01-10T10:44:31;103045.91;;;-2.93;100.00
76627;BME280;65519;53.230;10.390;2024-01-10T10:47:04;103049.78;;;-2.98;100.00
76627;BME280;65519;53.230;10.390;2024-01-10T10:49:31;103057.78;;;-2.86;100.00
76627;BME280;65519;53.230;10.390;2024-01-10T10:51:59;103061.84;;;-2.49;100.00
76627;BME280;65519;53.230;10.390;2024-01-10T10:54:28;103059.81;;;-2.36;100.00
76627;BME280;65519;53.230;10.390;2024-01-10T10:56:57;103063.91;;;-2.21;100.00
76627;BME280;65519;53.230;10.390;2024-01-10T10:59:25;103059.44;;;-1.78;100.00
76627;BME280;65519;53.230;10.390;2024-01-10T11:01:51;103067.75;;;-2.13;100.00
76627;BME280;65519;53.230;10.390;2024-01-10T11:04:20;103064.44;;;-2.38;100.00
76627;BME280;65519;53.230;10.390;2024-01-10T11:06:46;103069.31;;;-2.43;100.00
76627;BME280;65519;53.230;10.390;2024-01-10T11:09:14;103068.06;;;-2.71;100.00
76627;BME280;65519;53.230;10.390;2024-01-10T11:12:02;103067.22;;;-2.71;100.00
76627;BME280;65519;53.230;10.390;2024-01-10T11:24:52;103057.41;;;-2.82;100.00
76627;BME280;65519;53.230;10.390;2024-01-10T11:27:18;103057.78;;;-2.86;100.00
76627;BME280;65519;53.230;10.390;2024-01-10T11:29:45;103055.22;;;-2.88;100.00
76627;BME280;65519;53.230;10.390;2024-01-10T11:32:22;103052.44;;;-2.86;100.00
76627;BME280;65519;53.230;10.390;2024-01-10T11:35:04;103054.38;;;-2.88;100.00
76627;BME280;65519;53.230;10.390;2024-01-10T11:37:41;103057.16;;;-2.90;100.00
76627;BME280;65519;53.230;10.390;2024-01-10T11:40:08;103048.91;;;-2.87;100.00
76627;BME280;65519;53.230;10.390;2024-01-10T11:42:44;103057.03;;;-2.77;100.00
76627;BME280;65519;53.230;10.390;2024-01-10T11:47:57;103052.63;;;-2.67;100.00
76627;BME280;65519;53.230;10.390;2024-01-10T11:50:23;103053.63;;;-2.79;100.00
76627;BME280;65519;53.230;10.390;2024-01-10T11:52:53;103053.03;;;-2.83;100.00
76627;BME280;65519;53.230;10.390;2024-01-10T11:55:47;103050.88;;;-2.46;100.00
76627;BME280;65519;53.230;10.390;2024-01-10T11:58:12;103050.75;;;-2.44;100.00
76627;BME280;65519;53.230;10.390;2024-01-10T12:00:39;103042.69;;;-2.33;100.00
76627;BME280;65519;53.230;10.390;2024-01-10T12:03:07;103032.16;;;-2.35;100.00
76627;BME280;65519;53.230;10.390;2024-01-10T12:05:34;103025.78;;;-2.23;100.00
76627;BME280;65519;53.230;10.390;2024-01-10T12:07:59;103031.81;;;-2.41;100.00
76627;BME280;65519;53.230;10.390;2024-01-10T12:10:26;103035.78;;;-2.36;100.00
76627;BME280;65519;53.230;10.390;2024-01-10T12:12:52;103037.47;;;-2.03;100.00
76627;BME280;65519;53.230;10.390;2024-01-10T12:15:20;103023.31;;;-1.52;100.00
76627;BME280;65519;53.230;10.390;2024-01-10T12:17:46;103023.66;;;-1.87;100.00
76627;BME280;65519;53.230;10.390;2024-01-10T12:20:11;103031.69;;;-2.08;100.00
76627;BME280;65519;53.230;10.390;2024-01-10T12:22:37;103021.50;;;-1.93;100.00
76627;BME280;65519;53.230;10.390;2024-01-10T12:25:06;103017.41;;;-1.76;100.00
76627;BME280;65519;53.230;10.390;2024-01-10T12:27:31;103015.28;;;-1.52;100.00
76627;BME280;65519;53.230;10.390;2024-01-10T12:30:00;103013.81;;;-1.87;100.00
76627;BME280;65519;53.230;10.390;2024-01-10T12:32:28;103022.63;;;-2.16;100.00
76627;BME280;65519;53.230;10.390;2024-01-10T12:35:03;103011.47;;;-2.01;100.00
76627;BME280;65519;53.230;10.390;2024-01-10T12:37:30;103012.63;;;-1.73;100.00
76627;BME280;65519;53.230;10.390;2024-01-10T12:39:56;103012.91;;;-1.97;100.00